Terminal Aerodrome Forecast
Issued by NWS

Home | Current Version | Previous Version | Text Only | Print | Product List | Glossary On
Versions: 1 2 3 4 5 6 7 8 9 10 11 12 13 14 15 16 17 18
000
FTUS46 KSEW 012300
TAFOLM
TAF
KOLM 012320Z 0200/0224 25005KT P6SM BKN050
     FM020300 00000KT P6SM FEW250
     FM021100 00000KT 1/2SM FG OVC001
     FM021800 VRB03KT P6SM SCT100 SCT250=

USA.gov is the U.S. government's official web portal to all federal, state and local government web resources and services.